Portada
METAR-TAF:

METAR-TAF

Aeroports :

Lydd, Anglaterra

latitud: 50-57N, longitud: 000-56E, altitud: 3 m

Observació

L'informe es va fer fa 27 minuts, a les 03:50 UTC
Vent 10 kt del Oest/Sud-Oest
Temperatura 17°C
Humitat 88%
Pressió 1023 hPa
Visibilitat 10 km o més

METAR: EGMD 220350Z AUTO 25010KT 9999 NCD 17/15 Q1023

Hora: 05:17 (04:17 UTC)

Pronòstic

L'informe es va fer fa 2 hores i 18 minuts, a les 01:59 UTC
Pronòstic vàlid del 22 a les 03 UTC al 22 a les 12 UTC
Vent 10 kt del Sud-Oest
Visibilitat 10 km o més
Escasses núvols a una alçada de 4500 ft
Probabilitat 30% :
Temporalment
l' 22 a les 03 UTC al 22 a les 08 UTC
Cel ennuvolat a una alçada de 900 ft

TAF: EGMD 220159Z 2203/2212 22010KT 9999 FEW045 PROB30 TEMPO 2203/2208 BKN009

Observacions i pronòstics meteorològics de més de 4000 aeroports (METAR i TAF).

Les estacions disponibles són els punts grocs i vermells al mapa.

Posi el ratolí al punt desitjat per veure el nom de l'estació.

Feu clic per veure les observacions i els pronòstics meteorològics.

Per canviar el mapa: feu clic els botons verds amb una creu de color negre per apropar; al botó verd amb un guió per allunyar la imatge; o en les fletxes verdes per a mapes adjacents.


METAR-TAF: